Time;durP1;ratioP1;P1;durP2;ratioP2;P2;SDS_P1;SDS_P2;PMS_P1;PMS_P2;Temp;Humidity;BMP_temperature;BMP_pressure;BME280_temperature;BME280_humidity;BME280_pressure;Samples;Min_cycle;Max_cycle;Signal;HPM_P1;HPM_P2
2024/01/15 06:02:19;;;;;;;21.40;7.53;;;;;;;;;;5117337;23;20544;-73
2024/01/15 06:04:45;;;;;;;23.73;8.87;;;;;;;;;;5016141;28;20457;-73
2024/01/15 06:07:11;;;;;;;14.60;7.53;;;;;;;;;;5015955;28;20889;-74
2024/01/15 06:09:38;;;;;;;21.17;8.20;;;;;;;;;;5016178;28;20434;-73
2024/01/15 06:12:04;;;;;;;17.10;7.20;;;;;;;;;;4999793;28;20422;-73
2024/01/15 06:14:30;;;;;;;27.20;8.30;;;;;;;;;;4996816;28;20411;-73
2024/01/15 06:16:56;;;;;;;20.33;8.30;;;;;;;;;;4996315;28;20403;-73
2024/01/15 06:19:22;;;;;;;23.60;9.20;;;;;;;;;;4996487;28;20563;-73
2024/01/15 06:21:48;;;;;;;21.47;9.40;;;;;;;;;;4995881;28;20470;-73
2024/01/15 06:24:15;;;;;;;24.77;7.63;;;;;;;;;;4995938;28;20462;-73
2024/01/15 06:26:41;;;;;;;21.30;8.47;;;;;;;;;;4995537;28;20442;-75
2024/01/15 06:29:07;;;;;;;15.03;7.27;;;;;;;;;;4995859;28;20403;-73
2024/01/15 06:31:33;;;;;;;21.60;8.70;;;;;;;;;;4995848;28;20427;-75
2024/01/15 06:33:59;;;;;;;25.17;8.90;;;;;;;;;;4996095;28;20418;-75
2024/01/15 06:36:25;;;;;;;19.10;8.43;;;;;;;;;;4995721;28;20937;-75
2024/01/15 06:38:51;;;;;;;23.47;8.93;;;;;;;;;;4995497;28;20419;-75
2024/01/15 06:41:17;;;;;;;23.00;8.70;;;;;;;;;;4993012;28;20454;-75
2024/01/15 06:43:43;;;;;;;29.60;9.97;;;;;;;;;;4993305;28;20423;-75
2024/01/15 06:46:09;;;;;;;20.83;8.43;;;;;;;;;;4994575;28;20431;-75
2024/01/15 06:48:35;;;;;;;17.67;7.73;;;;;;;;;;4996314;28;20946;-75
2024/01/15 06:51:01;;;;;;;18.57;7.83;;;;;;;;;;4994519;28;20447;-74
2024/01/15 06:53:27;;;;;;;24.33;9.40;;;;;;;;;;4996283;28;20423;-75
2024/01/15 06:55:53;;;;;;;25.53;9.63;;;;;;;;;;4995721;28;20426;-75
2024/01/15 06:58:19;;;;;;;20.23;7.43;;;;;;;;;;4996576;28;20498;-77
2024/01/15 07:00:45;;;;;;;25.00;8.27;;;;;;;;;;4995326;28;20963;-75
2024/01/15 07:03:11;;;;;;;25.83;8.50;;;;;;;;;;4996254;28;20422;-75
2024/01/15 07:05:37;;;;;;;20.30;8.27;;;;;;;;;;4997056;28;20454;-73
2024/01/15 07:08:03;;;;;;;16.87;7.33;;;;;;;;;;4996615;28;20498;-74
2024/01/15 07:10:29;;;;;;;21.57;8.90;;;;;;;;;;4996193;28;20461;-74
2024/01/15 07:12:55;;;;;;;18.83;8.70;;;;;;;;;;4996027;28;20412;-74
2024/01/15 07:15:21;;;;;;;19.27;6.67;;;;;;;;;;4995344;28;20411;-73
2024/01/15 07:17:47;;;;;;;21.60;8.80;;;;;;;;;;4995656;28;20879;-73
2024/01/15 07:20:13;;;;;;;21.27;8.50;;;;;;;;;;4994031;28;20489;-74
2024/01/15 07:22:39;;;;;;;23.73;8.77;;;;;;;;;;4995169;28;20411;-72
2024/01/15 07:25:06;;;;;;;22.80;8.17;;;;;;;;;;4994574;28;20493;-73
2024/01/15 07:27:32;;;;;;;19.07;8.53;;;;;;;;;;4994877;28;20486;-72
2024/01/15 07:29:58;;;;;;;20.30;7.40;;;;;;;;;;4998736;28;20418;-72
2024/01/15 07:32:24;;;;;;;18.30;8.07;;;;;;;;;;4996747;28;20427;-72
2024/01/15 07:34:50;;;;;;;24.90;7.80;;;;;;;;;;4993294;28;20415;-71
2024/01/15 07:37:16;;;;;;;19.10;6.43;;;;;;;;;;4995271;28;20914;-72
2024/01/15 07:39:42;;;;;;;12.03;5.80;;;;;;;;;;4995457;28;20426;-72
2024/01/15 07:42:08;;;;;;;16.37;7.70;;;;;;;;;;4994541;28;20438;-72
2024/01/15 07:44:34;;;;;;;20.33;8.00;;;;;;;;;;4994178;28;20462;-71
2024/01/15 07:47:00;;;;;;;13.83;6.43;;;;;;;;;;4993997;28;20407;-74
2024/01/15 07:49:26;;;;;;;20.10;7.33;;;;;;;;;;4992562;28;20450;-74
2024/01/15 07:51:52;;;;;;;20.77;7.33;;;;;;;;;;4993976;28;20786;-75
2024/01/15 07:54:18;;;;;;;23.40;8.07;;;;;;;;;;4994898;28;20423;-75
2024/01/15 07:56:54;;;;;;;20.27;7.70;;;;;;;;;;4994349;28;20419;-73
2024/01/15 07:59:20;;;;;;;22.10;7.93;;;;;;;;;;4977965;28;20522;-74
2024/01/15 08:01:47;;;;;;;16.63;7.70;;;;;;;;;;4975117;28;20514;-73
2024/01/15 08:04:13;;;;;;;17.20;6.80;;;;;;;;;;4988400;28;20540;-74
2024/01/15 08:06:39;;;;;;;13.97;6.07;;;;;;;;;;4992282;28;20925;-73
2024/01/15 08:09:05;;;;;;;18.13;7.80;;;;;;;;;;4994781;28;20430;-73
2024/01/15 08:11:31;;;;;;;23.07;7.27;;;;;;;;;;4994972;28;20438;-73
2024/01/15 08:13:57;;;;;;;20.63;6.60;;;;;;;;;;4993465;28;20431;-75
2024/01/15 08:16:24;;;;;;;16.43;6.70;;;;;;;;;;4993863;28;20981;-74
2024/01/15 08:18:51;;;;;;;19.63;8.17;;;;;;;;;;4994822;28;20522;-74
2024/01/15 08:21:17;;;;;;;21.20;7.83;;;;;;;;;;4993633;28;20472;-74
2024/01/15 08:23:43;;;;;;;19.10;7.93;;;;;;;;;;4994466;28;20782;-73
2024/01/15 08:26:09;;;;;;;16.80;6.30;;;;;;;;;;4993430;28;20450;-74
2024/01/15 08:28:35;;;;;;;19.60;7.00;;;;;;;;;;4993661;28;20418;-73
2024/01/15 08:31:01;;;;;;;16.83;6.30;;;;;;;;;;4993328;28;20434;-73
2024/01/15 08:33:27;;;;;;;19.90;6.90;;;;;;;;;;4993698;28;20473;-72
2024/01/15 08:35:53;;;;;;;14.50;6.77;;;;;;;;;;4993088;28;20498;-74
2024/01/15 08:38:19;;;;;;;25.07;7.70;;;;;;;;;;4993194;28;20418;-73
2024/01/15 08:40:45;;;;;;;14.57;6.70;;;;;;;;;;4993763;28;20478;-74
2024/01/15 08:43:11;;;;;;;16.70;8.53;;;;;;;;;;4992009;28;20458;-73
2024/01/15 08:45:37;;;;;;;15.50;7.63;;;;;;;;;;4993024;28;20886;-72
2024/01/15 08:48:03;;;;;;;18.50;8.30;;;;;;;;;;4993370;28;20412;-73
2024/01/15 08:50:29;;;;;;;16.70;6.33;;;;;;;;;;4991885;28;20453;-73
2024/01/15 08:52:55;;;;;;;16.23;6.93;;;;;;;;;;4993452;28;20443;-73
2024/01/15 08:55:22;;;;;;;18.00;6.50;;;;;;;;;;4993261;28;20422;-74
2024/01/15 08:57:48;;;;;;;16.43;6.30;;;;;;;;;;4992585;28;20427;-73
2024/01/15 09:00:14;;;;;;;17.97;6.37;;;;;;;;;;4993149;28;20469;-73
2024/01/15 09:02:40;;;;;;;12.50;6.90;;;;;;;;;;4993353;28;20894;-72
2024/01/15 09:05:06;;;;;;;17.70;7.03;;;;;;;;;;4993060;28;20470;-73
2024/01/15 09:07:32;;;;;;;19.77;6.37;;;;;;;;;;5009649;28;20415;-72
2024/01/15 09:09:59;;;;;;;9.87;5.37;;;;;;;;;;5009868;28;20422;-72
2024/01/15 09:12:25;;;;;;;16.90;5.50;;;;;;;;;;5005779;28;20450;-72
2024/01/15 09:14:51;;;;;;;9.60;5.23;;;;;;;;;;5008038;28;20415;-72
2024/01/15 09:17:17;;;;;;;12.63;5.47;;;;;;;;;;5007755;28;20422;-72
2024/01/15 09:19:44;;;;;;;18.90;6.30;;;;;;;;;;5013388;28;20422;-72
2024/01/15 09:22:10;;;;;;;11.07;5.97;;;;;;;;;;5013135;28;20435;-72
2024/01/15 09:24:36;;;;;;;11.53;5.93;;;;;;;;;;5003937;28;20470;-72
2024/01/15 09:27:02;;;;;;;13.07;5.43;;;;;;;;;;5001205;28;20929;-73
2024/01/15 09:29:28;;;;;;;10.03;5.47;;;;;;;;;;4999538;28;20843;-74
2024/01/15 09:31:54;;;;;;;11.90;5.77;;;;;;;;;;5001361;28;20423;-75
2024/01/15 09:34:20;;;;;;;14.87;5.80;;;;;;;;;;4998513;28;20457;-73
2024/01/15 09:36:47;;;;;;;14.43;5.23;;;;;;;;;;4997180;28;20411;-74
2024/01/15 09:39:13;;;;;;;12.10;5.00;;;;;;;;;;4996541;28;20414;-74
2024/01/15 09:41:39;;;;;;;14.93;5.77;;;;;;;;;;4995961;28;20466;-76
2024/01/15 09:44:07;;;;;;;14.60;5.53;;;;;;;;;;4997534;28;20854;-74
2024/01/15 09:46:33;;;;;;;12.33;5.40;;;;;;;;;;4997619;28;20403;-74
2024/01/15 09:49:01;;;;;;;10.00;5.33;;;;;;;;;;4996839;28;20414;-74
2024/01/15 09:51:28;;;;;;;17.20;6.13;;;;;;;;;;4996645;28;20439;-73
2024/01/15 09:53:55;;;;;;;10.00;5.23;;;;;;;;;;4996311;28;20415;-74
2024/01/15 09:56:21;;;;;;;8.17;4.70;;;;;;;;;;4997631;28;20450;-74
2024/01/15 09:58:48;;;;;;;13.00;5.23;;;;;;;;;;4996715;28;20474;-73
2024/01/15 10:01:15;;;;;;;14.90;4.50;;;;;;;;;;4997772;28;20458;-74
2024/01/15 10:03:41;;;;;;;13.27;5.70;;;;;;;;;;4997895;28;20439;-74
2024/01/15 10:06:08;;;;;;;10.00;5.07;;;;;;;;;;4998539;28;20519;-74
2024/01/15 10:08:37;;;;;;;11.63;4.77;;;;;;;;;;4996431;28;20442;-74
2024/01/15 10:11:04;;;;;;;24.73;5.63;;;;;;;;;;4996527;28;20450;-74
2024/01/15 10:13:31;;;;;;;10.90;5.43;;;;;;;;;;4997528;28;20415;-75
2024/01/15 10:15:58;;;;;;;10.43;5.30;;;;;;;;;;4995966;28;20411;-74
2024/01/15 10:18:24;;;;;;;15.97;5.13;;;;;;;;;;5002510;28;20422;-73
2024/01/15 10:20:50;;;;;;;11.03;5.00;;;;;;;;;;5012239;28;20497;-74
2024/01/15 10:23:16;;;;;;;8.73;5.10;;;;;;;;;;5012349;28;20482;-73
2024/01/15 10:25:43;;;;;;;8.70;4.20;;;;;;;;;;5004037;28;20458;-73
2024/01/15 10:28:09;;;;;;;11.20;4.43;;;;;;;;;;5004105;28;20438;-73
2024/01/15 10:30:35;;;;;;;11.67;5.53;;;;;;;;;;5005115;28;20458;-73
2024/01/15 10:33:03;;;;;;;12.00;4.27;;;;;;;;;;5005285;28;20473;-72
2024/01/15 10:35:33;;;;;;;15.30;4.80;;;;;;;;;;4996711;28;20423;-74
2024/01/15 10:38:02;;;;;;;11.73;4.27;;;;;;;;;;4992816;28;20455;-74
2024/01/15 10:40:29;;;;;;;10.37;5.30;;;;;;;;;;4997235;28;20458;-74
2024/01/15 10:42:55;;;;;;;11.17;5.10;;;;;;;;;;4990713;28;20423;-73
2024/01/15 10:45:21;;;;;;;11.17;4.40;;;;;;;;;;4989850;28;21197;-72
2024/01/15 10:47:48;;;;;;;11.27;5.17;;;;;;;;;;4997009;28;20427;-72
2024/01/15 10:50:14;;;;;;;7.50;3.90;;;;;;;;;;4990368;28;20505;-72
2024/01/15 10:52:41;;;;;;;9.13;4.33;;;;;;;;;;4995266;28;20441;-73
2024/01/15 10:55:10;;;;;;;10.57;4.13;;;;;;;;;;4995703;28;20497;-72
2024/01/15 10:57:39;;;;;;;9.83;4.30;;;;;;;;;;4997416;28;20464;-71
2024/01/15 11:00:06;;;;;;;10.87;4.03;;;;;;;;;;4996375;28;20772;-72
2024/01/15 11:02:37;;;;;;;16.80;7.13;;;;;;;;;;4994921;28;20450;-73
2024/01/15 11:05:03;;;;;;;8.60;4.30;;;;;;;;;;4990656;28;20474;-76
2024/01/15 11:07:30;;;;;;;9.87;4.67;;;;;;;;;;4994130;28;20455;-75
2024/01/15 11:09:59;;;;;;;8.03;4.43;;;;;;;;;;4999481;28;20429;-75
2024/01/15 11:12:26;;;;;;;8.57;3.93;;;;;;;;;;4995344;28;20443;-74
2024/01/15 11:14:54;;;;;;;10.93;3.90;;;;;;;;;;4993557;28;20458;-74
2024/01/15 11:17:20;;;;;;;9.50;4.63;;;;;;;;;;4996043;28;20462;-74
2024/01/15 11:19:50;;;;;;;8.70;4.23;;;;;;;;;;5009821;28;20423;-76
2024/01/15 11:22:32;;;;;;;15.07;4.90;;;;;;;;;;4992598;28;20463;-73
2024/01/15 11:25:01;;;;;;;10.53;4.73;;;;;;;;;;4979131;28;20946;-73
2024/01/15 11:27:44;;;;;;;10.33;4.23;;;;;;;;;;4983596;28;20753;-73
2024/01/15 11:30:10;;;;;;;14.27;5.90;;;;;;;;;;4981744;28;20416;-74
2024/01/15 11:32:36;;;;;;;12.50;4.20;;;;;;;;;;4978935;28;20426;-74
2024/01/15 11:35:03;;;;;;;11.80;5.30;;;;;;;;;;4991445;28;20424;-73
2024/01/15 11:37:30;;;;;;;11.33;4.63;;;;;;;;;;4977599;28;20760;-72
2024/01/15 11:40:10;;;;;;;7.53;3.93;;;;;;;;;;4990030;28;20419;-72
2024/01/15 11:42:36;;;;;;;15.77;6.80;;;;;;;;;;4980807;28;20465;-73
2024/01/15 11:45:03;;;;;;;14.00;5.80;;;;;;;;;;4974004;28;20472;-72
2024/01/15 11:47:48;;;;;;;12.13;5.13;;;;;;;;;;4977096;28;20408;-75
2024/01/15 11:50:15;;;;;;;12.83;5.57;;;;;;;;;;4975911;28;20411;-71
2024/01/15 11:52:45;;;;;;;11.70;6.07;;;;;;;;;;4982989;28;20811;-72
2024/01/15 11:55:25;;;;;;;16.60;6.23;;;;;;;;;;4993464;28;20902;-72
2024/01/15 11:57:52;;;;;;;13.83;5.40;;;;;;;;;;4993872;28;20546;-73
2024/01/15 12:00:19;;;;;;;13.67;6.90;;;;;;;;;;4991445;28;20434;-72
2024/01/15 12:02:52;;;;;;;14.63;6.20;;;;;;;;;;5131070;27;20623;-73
2024/01/15 12:05:19;;;;;;;10.63;6.30;;;;;;;;;;5130212;28;20405;-75
2024/01/15 12:07:47;;;;;;;12.90;6.07;;;;;;;;;;5130019;28;20398;-73
2024/01/15 12:10:13;;;;;;;17.90;6.20;;;;;;;;;;5130286;28;20412;-74
2024/01/15 12:12:59;;;;;;;12.63;5.70;;;;;;;;;;5120074;28;20430;-74
2024/01/15 12:15:26;;;;;;;12.67;5.53;;;;;;;;;;5148333;28;20405;-74
2024/01/15 12:17:52;;;;;;;12.60;5.63;;;;;;;;;;5127957;28;20405;-73
2024/01/15 12:20:18;;;;;;;12.53;4.90;;;;;;;;;;5148545;28;20409;-73
2024/01/15 12:22:45;;;;;;;10.67;5.00;;;;;;;;;;5138919;28;20816;-74
2024/01/15 12:25:11;;;;;;;11.53;5.20;;;;;;;;;;5094280;28;20413;-74
2024/01/15 12:27:37;;;;;;;15.83;5.10;;;;;;;;;;5093441;28;20468;-73
2024/01/15 12:30:03;;;;;;;22.83;5.90;;;;;;;;;;5112095;28;20406;-75
2024/01/15 12:32:29;;;;;;;14.60;5.43;;;;;;;;;;5110421;28;20925;-75
2024/01/15 12:34:55;;;;;;;12.60;5.77;;;;;;;;;;5112408;28;20787;-73
2024/01/15 12:37:21;;;;;;;9.60;5.20;;;;;;;;;;5130791;28;20776;-73
2024/01/15 12:39:48;;;;;;;14.70;6.50;;;;;;;;;;5130792;28;20417;-73
2024/01/15 12:42:17;;;;;;;13.83;5.93;;;;;;;;;;5130527;28;20464;-73
2024/01/15 12:44:45;;;;;;;14.60;6.43;;;;;;;;;;5130962;28;20416;-72
2024/01/15 12:47:11;;;;;;;14.87;7.70;;;;;;;;;;5129567;28;20397;-73
2024/01/15 12:49:37;;;;;;;14.07;5.63;;;;;;;;;;5131342;28;20408;-74
2024/01/15 12:52:04;;;;;;;10.10;5.10;;;;;;;;;;5131284;28;20441;-73
2024/01/15 12:54:30;;;;;;;9.10;4.80;;;;;;;;;;5114119;28;20420;-72
2024/01/15 12:56:56;;;;;;;16.50;5.90;;;;;;;;;;5131171;28;20428;-73
2024/01/15 12:59:22;;;;;;;13.83;5.67;;;;;;;;;;5130240;28;20423;-71
2024/01/15 13:01:48;;;;;;;14.87;5.97;;;;;;;;;;5111560;28;20464;-74
2024/01/15 13:04:23;;;;;;;14.97;5.73;;;;;;;;;;5111023;28;20864;-72
2024/01/15 13:06:50;;;;;;;10.40;5.20;;;;;;;;;;5134482;28;20690;-74
2024/01/15 13:09:16;;;;;;;16.20;7.07;;;;;;;;;;5094950;28;20453;-74
2024/01/15 13:11:42;;;;;;;18.17;5.33;;;;;;;;;;5110752;28;20998;-74
2024/01/15 13:14:08;;;;;;;11.50;6.17;;;;;;;;;;5096736;28;20407;-74
2024/01/15 13:16:34;;;;;;;14.30;6.33;;;;;;;;;;5096085;28;20438;-73
2024/01/15 13:19:01;;;;;;;17.80;5.90;;;;;;;;;;5102304;28;20765;-73
2024/01/15 13:21:26;;;;;;;12.27;5.80;;;;;;;;;;5098029;28;20457;-73
2024/01/15 13:23:52;;;;;;;14.20;4.90;;;;;;;;;;5116807;28;20416;-73
2024/01/15 13:26:19;;;;;;;8.20;4.63;;;;;;;;;;5116416;28;20480;-73
2024/01/15 13:28:45;;;;;;;15.87;5.20;;;;;;;;;;5116294;28;20406;-74
2024/01/15 13:31:11;;;;;;;11.70;4.90;;;;;;;;;;5116044;28;20482;-74
2024/01/15 13:33:37;;;;;;;10.00;4.97;;;;;;;;;;5097986;28;20401;-73
2024/01/15 13:36:03;;;;;;;11.03;4.63;;;;;;;;;;5097130;28;20428;-73
2024/01/15 13:38:35;;;;;;;10.30;4.20;;;;;;;;;;5116492;28;20410;-73
2024/01/15 13:41:01;;;;;;;7.53;4.47;;;;;;;;;;5115765;28;20469;-72
2024/01/15 13:43:27;;;;;;;9.10;5.00;;;;;;;;;;5116324;28;20559;-71
2024/01/15 13:45:54;;;;;;;6.43;3.77;;;;;;;;;;5097147;28;20471;-71
2024/01/15 13:48:20;;;;;;;10.43;4.60;;;;;;;;;;5097294;28;20412;-72
2024/01/15 13:50:46;;;;;;;8.60;3.60;;;;;;;;;;5115420;28;20429;-72
2024/01/15 13:53:12;;;;;;;8.17;4.10;;;;;;;;;;5115435;28;20497;-74
2024/01/15 13:55:38;;;;;;;11.83;4.70;;;;;;;;;;5115571;28;20810;-74
2024/01/15 13:58:05;;;;;;;7.90;4.40;;;;;;;;;;5115065;28;20807;-72
2024/01/15 14:00:31;;;;;;;9.70;4.23;;;;;;;;;;5115591;28;20426;-72
2024/01/15 14:02:57;;;;;;;14.63;4.60;;;;;;;;;;5097421;28;20471;-72
2024/01/15 14:05:23;;;;;;;8.17;4.23;;;;;;;;;;5115110;28;20409;-71
2024/01/15 14:07:49;;;;;;;11.80;4.80;;;;;;;;;;5117096;28;20418;-71
2024/01/15 14:10:16;;;;;;;12.87;3.83;;;;;;;;;;5097033;28;20413;-70
2024/01/15 14:12:42;;;;;;;12.13;4.20;;;;;;;;;;5115094;28;20454;-72
2024/01/15 14:15:08;;;;;;;5.70;3.67;;;;;;;;;;5115247;28;20406;-72
2024/01/15 14:17:34;;;;;;;10.20;4.43;;;;;;;;;;5115340;28;20410;-73
2024/01/15 14:20:00;;;;;;;10.73;4.33;;;;;;;;;;5115257;28;20473;-74
2024/01/15 14:22:26;;;;;;;8.70;4.03;;;;;;;;;;5114841;28;20478;-72
2024/01/15 14:24:53;;;;;;;7.40;4.03;;;;;;;;;;5113637;28;20406;-75
2024/01/15 14:27:19;;;;;;;6.07;3.60;;;;;;;;;;5097024;28;20414;-74
2024/01/15 14:29:46;;;;;;;8.20;4.23;;;;;;;;;;5115733;28;20401;-74
2024/01/15 14:32:12;;;;;;;9.43;4.23;;;;;;;;;;5116477;28;20804;-72
2024/01/15 14:34:38;;;;;;;5.43;3.20;;;;;;;;;;5115970;28;20846;-73
2024/01/15 14:37:04;;;;;;;7.67;4.17;;;;;;;;;;5115580;28;20409;-72
2024/01/15 14:39:33;;;;;;;7.10;4.30;;;;;;;;;;5097439;28;20421;-73
2024/01/15 14:42:00;;;;;;;6.60;3.93;;;;;;;;;;5114835;28;20556;-72
2024/01/15 14:44:26;;;;;;;8.03;4.80;;;;;;;;;;5096542;28;20418;-73
2024/01/15 14:46:52;;;;;;;8.27;4.77;;;;;;;;;;5114303;28;20402;-73
2024/01/15 14:49:19;;;;;;;15.30;6.50;;;;;;;;;;5096343;28;20413;-71
2024/01/15 14:51:45;;;;;;;13.67;6.13;;;;;;;;;;5107112;28;20496;-73
2024/01/15 14:54:11;;;;;;;11.80;6.17;;;;;;;;;;5094443;28;20457;-72
2024/01/15 14:56:37;;;;;;;20.43;8.23;;;;;;;;;;5113436;28;20843;-73
2024/01/15 14:59:03;;;;;;;11.47;6.80;;;;;;;;;;5105602;28;20505;-74
2024/01/15 15:01:29;;;;;;;13.53;7.53;;;;;;;;;;5113396;28;20472;-73
2024/01/15 15:03:55;;;;;;;21.80;8.20;;;;;;;;;;5113656;28;20465;-75
2024/01/15 15:06:21;;;;;;;16.70;8.23;;;;;;;;;;5113364;28;20912;-76
2024/01/15 15:08:47;;;;;;;15.60;8.53;;;;;;;;;;5105024;28;20406;-74
2024/01/15 15:11:13;;;;;;;28.53;9.33;;;;;;;;;;5106546;28;20932;-74
2024/01/15 15:13:40;;;;;;;23.00;9.67;;;;;;;;;;5105182;28;20956;-72
2024/01/15 15:16:06;;;;;;;19.07;8.70;;;;;;;;;;5113403;28;20418;-72
2024/01/15 15:18:32;;;;;;;16.37;8.40;;;;;;;;;;5113390;28;20464;-71
2024/01/15 15:20:58;;;;;;;18.00;8.87;;;;;;;;;;5113622;28;20473;-72
2024/01/15 15:23:24;;;;;;;13.87;7.33;;;;;;;;;;5113165;28;20413;-72
2024/01/15 15:25:50;;;;;;;20.03;7.50;;;;;;;;;;5113243;28;20414;-74
2024/01/15 15:28:16;;;;;;;18.57;7.97;;;;;;;;;;5094200;28;20409;-75
2024/01/15 15:30:42;;;;;;;18.00;8.17;;;;;;;;;;5113133;28;20486;-72
2024/01/15 15:33:08;;;;;;;19.63;7.40;;;;;;;;;;5113308;28;20815;-73
2024/01/15 15:35:34;;;;;;;15.83;8.03;;;;;;;;;;5112824;28;20412;-71
2024/01/15 15:38:00;;;;;;;12.00;7.43;;;;;;;;;;5113120;28;20433;-72
2024/01/15 15:40:25;;;;;;;18.70;7.53;;;;;;;;;;5113261;28;20498;-71
2024/01/15 15:42:51;;;;;;;19.63;8.03;;;;;;;;;;5112960;28;21055;-73
2024/01/15 15:45:18;;;;;;;16.43;7.47;;;;;;;;;;5112645;28;20463;-73
2024/01/15 15:47:44;;;;;;;16.73;7.20;;;;;;;;;;5113155;28;20393;-74
2024/01/15 15:50:10;;;;;;;12.70;6.50;;;;;;;;;;5094624;28;20410;-73
2024/01/15 15:52:36;;;;;;;14.47;6.90;;;;;;;;;;5112998;28;20439;-73
2024/01/15 15:55:02;;;;;;;28.23;7.93;;;;;;;;;;5112085;28;20409;-72
2024/01/15 15:57:28;;;;;;;17.23;8.20;;;;;;;;;;5112873;28;20416;-74
2024/01/15 15:59:54;;;;;;;17.60;8.70;;;;;;;;;;5113257;28;20795;-74
2024/01/15 16:02:21;;;;;;;14.50;6.67;;;;;;;;;;5094510;28;20469;-75
2024/01/15 16:04:47;;;;;;;19.80;7.40;;;;;;;;;;5095347;28;20420;-74
2024/01/15 16:07:14;;;;;;;18.97;7.00;;;;;;;;;;5112915;28;20409;-73
2024/01/15 16:09:40;;;;;;;14.67;7.50;;;;;;;;;;5095889;28;20479;-72
2024/01/15 16:12:08;;;;;;;19.47;7.40;;;;;;;;;;5113462;28;20454;-72
2024/01/15 16:14:33;;;;;;;23.37;7.33;;;;;;;;;;5113187;28;20410;-74
2024/01/15 16:16:59;;;;;;;20.63;7.43;;;;;;;;;;5094850;28;20464;-73
2024/01/15 16:19:25;;;;;;;15.87;6.60;;;;;;;;;;5094739;28;20835;-72
2024/01/15 16:21:52;;;;;;;17.77;7.37;;;;;;;;;;5112786;28;20461;-73
2024/01/15 16:24:19;;;;;;;13.80;6.33;;;;;;;;;;5112748;28;20489;-74
2024/01/15 16:26:45;;;;;;;18.67;7.50;;;;;;;;;;5112858;28;20922;-73
2024/01/15 16:29:11;;;;;;;17.53;7.50;;;;;;;;;;5115062;28;20492;-74
2024/01/15 16:31:38;;;;;;;13.20;6.23;;;;;;;;;;5112687;28;20433;-73
2024/01/15 16:34:04;;;;;;;14.43;6.80;;;;;;;;;;5113119;28;20489;-74
2024/01/15 16:36:30;;;;;;;14.90;6.00;;;;;;;;;;5112476;28;20409;-72
2024/01/15 16:38:56;;;;;;;15.73;6.77;;;;;;;;;;5094971;28;20529;-73
2024/01/15 16:41:22;;;;;;;14.67;6.60;;;;;;;;;;5119493;28;20461;-72
2024/01/15 16:43:48;;;;;;;11.77;6.40;;;;;;;;;;5124958;28;20478;-73
2024/01/15 16:46:14;;;;;;;13.00;6.07;;;;;;;;;;5124486;28;20422;-72
2024/01/15 16:48:40;;;;;;;12.50;6.53;;;;;;;;;;5128122;28;20470;-75
2024/01/15 16:51:06;;;;;;;14.10;6.30;;;;;;;;;;5128308;28;20437;-75
2024/01/15 16:53:32;;;;;;;12.77;6.50;;;;;;;;;;5119003;28;20427;-78
2024/01/15 16:55:58;;;;;;;9.90;5.80;;;;;;;;;;5116781;28;20414;-76
2024/01/15 16:58:24;;;;;;;11.83;6.60;;;;;;;;;;5122377;28;20421;-76
2024/01/15 17:00:50;;;;;;;13.50;6.00;;;;;;;;;;5124632;28;20524;-75
2024/01/15 17:03:16;;;;;;;18.27;6.23;;;;;;;;;;5122029;28;20409;-74
2024/01/15 17:05:42;;;;;;;13.87;6.10;;;;;;;;;;5117329;28;20926;-75
2024/01/15 17:08:08;;;;;;;12.33;5.20;;;;;;;;;;5117253;28;20406;-74
2024/01/15 17:10:34;;;;;;;13.60;5.77;;;;;;;;;;5117631;28;20866;-74
2024/01/15 17:13:02;;;;;;;11.80;5.73;;;;;;;;;;5117375;28;20413;-74
2024/01/15 17:15:28;;;;;;;15.63;6.70;;;;;;;;;;5116627;28;20415;-76
2024/01/15 17:17:54;;;;;;;11.97;5.23;;;;;;;;;;5116816;28;20794;-74
2024/01/15 17:20:20;;;;;;;17.03;7.63;;;;;;;;;;5115948;28;20409;-74
2024/01/15 17:22:46;;;;;;;14.63;6.33;;;;;;;;;;5115852;28;20813;-74
2024/01/15 17:25:15;;;;;;;13.13;5.63;;;;;;;;;;5115521;28;20406;-75
2024/01/15 17:27:41;;;;;;;11.43;5.90;;;;;;;;;;5115834;28;20455;-74
2024/01/15 17:30:07;;;;;;;14.60;6.60;;;;;;;;;;5098135;28;20968;-74
2024/01/15 17:32:36;;;;;;;10.50;5.80;;;;;;;;;;5120033;28;20425;-74
2024/01/15 17:35:03;;;;;;;12.00;7.20;;;;;;;;;;5118191;28;20464;-75
2024/01/15 17:37:29;;;;;;;9.37;6.13;;;;;;;;;;5117100;28;20417;-75
2024/01/15 17:39:55;;;;;;;12.07;6.23;;;;;;;;;;5117260;28;20413;-75
2024/01/15 17:42:21;;;;;;;21.23;6.80;;;;;;;;;;5116184;28;20517;-73
2024/01/15 17:44:47;;;;;;;13.70;7.00;;;;;;;;;;5115960;28;20413;-74
2024/01/15 17:47:13;;;;;;;15.00;6.83;;;;;;;;;;5115654;28;20426;-75
2024/01/15 17:49:39;;;;;;;15.00;6.67;;;;;;;;;;5097070;28;20920;-75
2024/01/15 17:52:05;;;;;;;10.93;6.17;;;;;;;;;;5115340;28;20481;-75
2024/01/15 17:54:31;;;;;;;13.37;6.90;;;;;;;;;;5115678;28;20417;-75
2024/01/15 17:56:58;;;;;;;14.87;7.53;;;;;;;;;;5115062;28;20412;-74
2024/01/15 17:59:24;;;;;;;13.87;7.60;;;;;;;;;;5097124;28;20770;-73
2024/01/15 18:01:51;;;;;;;11.70;5.60;;;;;;;;;;5114822;28;20472;-75
2024/01/15 18:04:19;;;;;;;13.60;5.90;;;;;;;;;;5097152;28;20405;-74
2024/01/15 18:06:47;;;;;;;14.00;5.20;;;;;;;;;;5115256;28;20401;-75
2024/01/15 18:09:16;;;;;;;11.50;5.60;;;;;;;;;;5115247;28;20406;-75
2024/01/15 18:11:42;;;;;;;9.60;5.70;;;;;;;;;;5096663;28;20501;-76
2024/01/15 18:14:08;;;;;;;12.83;6.23;;;;;;;;;;5115012;28;20409;-73
2024/01/15 18:16:34;;;;;;;9.63;5.17;;;;;;;;;;5115081;28;20508;-74
2024/01/15 18:19:00;;;;;;;9.20;5.47;;;;;;;;;;5117468;28;20758;-74
2024/01/15 18:21:26;;;;;;;10.90;5.30;;;;;;;;;;5115968;28;20605;-74
2024/01/15 18:23:52;;;;;;;22.57;5.90;;;;;;;;;;5096969;28;20412;-74
2024/01/15 18:26:18;;;;;;;9.33;5.10;;;;;;;;;;5115473;28;20413;-73
2024/01/15 18:28:44;;;;;;;8.17;5.30;;;;;;;;;;5115401;28;20432;-73
2024/01/15 18:31:11;;;;;;;11.13;5.97;;;;;;;;;;5115684;28;20457;-73
2024/01/15 18:33:37;;;;;;;10.30;5.90;;;;;;;;;;5119200;28;20420;-74
2024/01/15 18:36:03;;;;;;;15.00;5.70;;;;;;;;;;5101492;28;20404;-73
2024/01/15 18:38:36;;;;;;;8.57;4.57;;;;;;;;;;5117816;28;20424;-75
2024/01/15 18:41:03;;;;;;;10.43;5.73;;;;;;;;;;5119516;28;20548;-73
2024/01/15 18:43:33;;;;;;;8.07;5.00;;;;;;;;;;5118008;28;20431;-74
2024/01/15 18:46:05;;;;;;;12.03;6.17;;;;;;;;;;5119194;28;20480;-74
2024/01/15 18:48:31;;;;;;;9.50;5.00;;;;;;;;;;5120612;28;20423;-74
2024/01/15 18:50:57;;;;;;;13.90;5.70;;;;;;;;;;5105120;28;20459;-74
2024/01/15 18:53:23;;;;;;;11.60;6.23;;;;;;;;;;5124293;28;20413;-74
2024/01/15 18:55:49;;;;;;;22.27;5.70;;;;;;;;;;5125223;28;20406;-73
2024/01/15 18:58:16;;;;;;;16.70;6.30;;;;;;;;;;5107080;28;20458;-73
2024/01/15 19:00:42;;;;;;;12.30;5.73;;;;;;;;;;5121250;28;20436;-73
2024/01/15 19:03:08;;;;;;;20.13;5.93;;;;;;;;;;5115019;28;20406;-75
2024/01/15 19:05:34;;;;;;;12.77;4.93;;;;;;;;;;5098891;28;20500;-74
2024/01/15 19:08:00;;;;;;;15.03;5.80;;;;;;;;;;5120017;28;20414;-77
2024/01/15 19:10:26;;;;;;;14.10;5.20;;;;;;;;;;5122201;28;20410;-74
2024/01/15 19:12:53;;;;;;;13.27;5.80;;;;;;;;;;5124605;28;20398;-74
2024/01/15 19:15:19;;;;;;;10.37;5.10;;;;;;;;;;5122482;28;20417;-74
2024/01/15 19:17:45;;;;;;;9.20;5.70;;;;;;;;;;5104700;28;20422;-74
2024/01/15 19:20:11;;;;;;;7.90;4.93;;;;;;;;;;5126299;28;20421;-73
2024/01/15 19:22:37;;;;;;;12.27;5.23;;;;;;;;;;5105635;28;20502;-74
2024/01/15 19:25:03;;;;;;;9.57;4.67;;;;;;;;;;5120476;28;20401;-73
2024/01/15 19:27:29;;;;;;;10.80;5.03;;;;;;;;;;5118363;28;20405;-73
2024/01/15 19:29:55;;;;;;;32.97;4.90;;;;;;;;;;5118437;28;20409;-75
2024/01/15 19:32:22;;;;;;;7.60;4.67;;;;;;;;;;5117247;28;20432;-74
2024/01/15 19:34:48;;;;;;;8.73;4.47;;;;;;;;;;5117920;28;20412;-74
2024/01/15 19:37:14;;;;;;;11.27;4.50;;;;;;;;;;5115117;28;20975;-74
2024/01/15 19:39:39;;;;;;;8.30;4.97;;;;;;;;;;5113020;28;20421;-75
2024/01/15 19:42:06;;;;;;;14.93;4.80;;;;;;;;;;5111462;28;20791;-74
2024/01/15 19:44:32;;;;;;;11.83;4.90;;;;;;;;;;5096811;28;20428;-74
2024/01/15 19:46:58;;;;;;;7.57;5.17;;;;;;;;;;5097361;28;20409;-74
2024/01/15 19:49:24;;;;;;;8.90;4.87;;;;;;;;;;5114927;28;20882;-72
2024/01/15 19:51:50;;;;;;;8.70;4.60;;;;;;;;;;5114875;28;20468;-74
2024/01/15 19:54:17;;;;;;;21.47;4.30;;;;;;;;;;5094095;28;20421;-72
2024/01/15 19:56:44;;;;;;;6.03;3.97;;;;;;;;;;5121458;28;20508;-74
2024/01/15 19:59:10;;;;;;;9.70;5.03;;;;;;;;;;5128523;28;20408;-77
2024/01/15 20:01:36;;;;;;;15.40;5.70;;;;;;;;;;5113658;28;20469;-72
2024/01/15 20:04:03;;;;;;;10.03;4.20;;;;;;;;;;5103364;28;20418;-75
2024/01/15 20:06:29;;;;;;;7.57;4.63;;;;;;;;;;5105424;28;20405;-73
2024/01/15 20:08:57;;;;;;;6.77;4.17;;;;;;;;;;5119076;28;20780;-72
2024/01/15 20:11:23;;;;;;;12.13;5.30;;;;;;;;;;5115665;28;20489;-74
2024/01/15 20:13:49;;;;;;;12.47;5.10;;;;;;;;;;5116418;28;20447;-71
2024/01/15 20:16:15;;;;;;;6.43;4.20;;;;;;;;;;5116671;28;20409;-75
2024/01/15 20:18:42;;;;;;;7.77;4.30;;;;;;;;;;5112666;28;20512;-72
2024/01/15 20:21:08;;;;;;;9.63;4.07;;;;;;;;;;5112894;28;20983;-71
2024/01/15 20:23:34;;;;;;;10.97;4.63;;;;;;;;;;5113963;28;20505;-71
2024/01/15 20:26:01;;;;;;;6.90;4.27;;;;;;;;;;5098939;28;20417;-71
2024/01/15 20:28:27;;;;;;;7.97;4.43;;;;;;;;;;5118459;28;20409;-75
2024/01/15 20:30:53;;;;;;;14.63;5.63;;;;;;;;;;5118455;28;20422;-74